sensor_id;sensor_type;location;lat;lon;timestamp;temperature;humidity
3818;DHT22;1924;48.078;11.516;2024-01-27T00:01:43;4.40;99.90
3818;DHT22;1924;48.078;11.516;2024-01-27T00:04:10;4.40;99.90
3818;DHT22;1924;48.078;11.516;2024-01-27T00:06:37;4.40;99.90
3818;DHT22;1924;48.078;11.516;2024-01-27T00:09:04;4.30;99.90
3818;DHT22;1924;48.078;11.516;2024-01-27T00:11:31;4.20;99.90
3818;DHT22;1924;48.078;11.516;2024-01-27T00:13:58;4.20;99.90
3818;DHT22;1924;48.078;11.516;2024-01-27T00:16:26;4.30;99.90
3818;DHT22;1924;48.078;11.516;2024-01-27T00:18:53;4.20;99.90
3818;DHT22;1924;48.078;11.516;2024-01-27T00:21:20;4.10;99.90
3818;DHT22;1924;48.078;11.516;2024-01-27T00:23:46;4.00;99.90
3818;DHT22;1924;48.078;11.516;2024-01-27T00:26:13;4.10;99.90
3818;DHT22;1924;48.078;11.516;2024-01-27T00:28:40;4.10;99.90
3818;DHT22;1924;48.078;11.516;2024-01-27T00:31:07;4.00;99.90
3818;DHT22;1924;48.078;11.516;2024-01-27T00:33:34;4.00;99.90
3818;DHT22;1924;48.078;11.516;2024-01-27T00:36:01;4.00;99.90
3818;DHT22;1924;48.078;11.516;2024-01-27T00:38:28;4.00;99.90
3818;DHT22;1924;48.078;11.516;2024-01-27T00:40:55;4.00;99.90
3818;DHT22;1924;48.078;11.516;2024-01-27T00:43:21;4.20;99.90
3818;DHT22;1924;48.078;11.516;2024-01-27T00:45:48;4.20;99.90
3818;DHT22;1924;48.078;11.516;2024-01-27T00:48:15;4.10;99.90
3818;DHT22;1924;48.078;11.516;2024-01-27T00:50:43;4.00;99.90
3818;DHT22;1924;48.078;11.516;2024-01-27T00:53:09;3.80;99.90
3818;DHT22;1924;48.078;11.516;2024-01-27T00:55:36;3.70;99.90
3818;DHT22;1924;48.078;11.516;2024-01-27T00:58:03;3.80;99.90
3818;DHT22;1924;48.078;11.516;2024-01-27T01:00:30;4.00;99.90
3818;DHT22;1924;48.078;11.516;2024-01-27T01:02:57;4.00;99.90
3818;DHT22;1924;48.078;11.516;2024-01-27T01:05:23;3.70;99.90
3818;DHT22;1924;48.078;11.516;2024-01-27T01:07:51;3.70;99.90
3818;DHT22;1924;48.078;11.516;2024-01-27T01:10:18;3.60;99.90
3818;DHT22;1924;48.078;11.516;2024-01-27T01:12:45;3.60;99.90
3818;DHT22;1924;48.078;11.516;2024-01-27T01:15:12;3.50;99.90
3818;DHT22;1924;48.078;11.516;2024-01-27T01:17:38;3.40;99.90
3818;DHT22;1924;48.078;11.516;2024-01-27T01:20:06;3.50;99.90
3818;DHT22;1924;48.078;11.516;2024-01-27T01:22:33;3.70;99.90
3818;DHT22;1924;48.078;11.516;2024-01-27T01:25:01;3.70;99.90
3818;DHT22;1924;48.078;11.516;2024-01-27T01:27:28;3.80;99.90
3818;DHT22;1924;48.078;11.516;2024-01-27T01:29:54;3.80;99.90
3818;DHT22;1924;48.078;11.516;2024-01-27T01:32:21;3.70;99.90
3818;DHT22;1924;48.078;11.516;2024-01-27T01:34:48;3.50;99.90
3818;DHT22;1924;48.078;11.516;2024-01-27T01:37:15;3.50;99.90
3818;DHT22;1924;48.078;11.516;2024-01-27T01:39:41;3.50;99.90
3818;DHT22;1924;48.078;11.516;2024-01-27T01:42:09;3.50;99.90
3818;DHT22;1924;48.078;11.516;2024-01-27T01:44:36;3.50;99.90
3818;DHT22;1924;48.078;11.516;2024-01-27T01:47:03;3.40;99.90
3818;DHT22;1924;48.078;11.516;2024-01-27T01:49:30;3.40;99.90
3818;DHT22;1924;48.078;11.516;2024-01-27T01:51:57;3.50;99.90
3818;DHT22;1924;48.078;11.516;2024-01-27T01:54:24;3.60;99.90
3818;DHT22;1924;48.078;11.516;2024-01-27T01:56:53;3.70;99.90
3818;DHT22;1924;48.078;11.516;2024-01-27T01:59:22;3.80;99.90
3818;DHT22;1924;48.078;11.516;2024-01-27T02:01:48;3.90;99.90
3818;DHT22;1924;48.078;11.516;2024-01-27T02:04:15;3.80;99.90
3818;DHT22;1924;48.078;11.516;2024-01-27T02:06:42;3.70;99.90
3818;DHT22;1924;48.078;11.516;2024-01-27T02:09:08;3.70;99.90
3818;DHT22;1924;48.078;11.516;2024-01-27T02:11:35;3.50;99.90
3818;DHT22;1924;48.078;11.516;2024-01-27T02:14:02;3.40;99.90
3818;DHT22;1924;48.078;11.516;2024-01-27T02:16:30;3.40;99.90
3818;DHT22;1924;48.078;11.516;2024-01-27T02:18:57;3.40;99.90
3818;DHT22;1924;48.078;11.516;2024-01-27T02:21:23;3.40;99.90
3818;DHT22;1924;48.078;11.516;2024-01-27T02:23:50;3.40;99.90
3818;DHT22;1924;48.078;11.516;2024-01-27T02:26:18;3.50;99.90
3818;DHT22;1924;48.078;11.516;2024-01-27T02:28:45;3.60;99.90
3818;DHT22;1924;48.078;11.516;2024-01-27T02:31:11;3.80;99.90
3818;DHT22;1924;48.078;11.516;2024-01-27T02:33:38;3.80;99.90
3818;DHT22;1924;48.078;11.516;2024-01-27T02:36:05;4.00;99.90
3818;DHT22;1924;48.078;11.516;2024-01-27T02:38:32;3.80;99.90
3818;DHT22;1924;48.078;11.516;2024-01-27T02:40:59;3.60;99.90
3818;DHT22;1924;48.078;11.516;2024-01-27T02:43:27;3.60;99.90
3818;DHT22;1924;48.078;11.516;2024-01-27T02:45:53;3.80;99.90
3818;DHT22;1924;48.078;11.516;2024-01-27T02:48:20;3.80;99.90
3818;DHT22;1924;48.078;11.516;2024-01-27T02:50:47;3.60;99.90
3818;DHT22;1924;48.078;11.516;2024-01-27T05:01:07;2.70;99.90
3818;DHT22;1924;48.078;11.516;2024-01-27T05:03:34;2.70;99.90
3818;DHT22;1924;48.078;11.516;2024-01-27T05:06:02;2.70;99.90
3818;DHT22;1924;48.078;11.516;2024-01-27T05:08:28;2.70;99.90
3818;DHT22;1924;48.078;11.516;2024-01-27T05:10:55;2.70;99.90
3818;DHT22;1924;48.078;11.516;2024-01-27T05:13:22;2.80;99.90
3818;DHT22;1924;48.078;11.516;2024-01-27T05:15:49;2.90;99.90
3818;DHT22;1924;48.078;11.516;2024-01-27T05:18:17;2.90;99.90
3818;DHT22;1924;48.078;11.516;2024-01-27T05:20:43;2.90;99.90
3818;DHT22;1924;48.078;11.516;2024-01-27T05:23:10;2.90;99.90
3818;DHT22;1924;48.078;11.516;2024-01-27T05:25:36;2.80;99.90
3818;DHT22;1924;48.078;11.516;2024-01-27T05:28:04;2.60;99.90
3818;DHT22;1924;48.078;11.516;2024-01-27T05:30:31;2.50;99.90
3818;DHT22;1924;48.078;11.516;2024-01-27T05:32:58;2.50;99.90
3818;DHT22;1924;48.078;11.516;2024-01-27T05:35:26;2.50;99.90
3818;DHT22;1924;48.078;11.516;2024-01-27T05:37:52;2.50;99.90
3818;DHT22;1924;48.078;11.516;2024-01-27T05:40:19;2.50;99.90
3818;DHT22;1924;48.078;11.516;2024-01-27T05:42:46;2.50;99.90
3818;DHT22;1924;48.078;11.516;2024-01-27T05:45:14;2.40;99.90
3818;DHT22;1924;48.078;11.516;2024-01-27T05:47:41;2.50;99.90
3818;DHT22;1924;48.078;11.516;2024-01-27T05:50:08;2.50;99.90
3818;DHT22;1924;48.078;11.516;2024-01-27T05:52:36;2.60;99.90
3818;DHT22;1924;48.078;11.516;2024-01-27T05:55:04;2.60;99.90
3818;DHT22;1924;48.078;11.516;2024-01-27T05:57:32;2.60;99.90
3818;DHT22;1924;48.078;11.516;2024-01-27T05:59:59;2.50;99.90
3818;DHT22;1924;48.078;11.516;2024-01-27T06:02:26;2.50;99.90
3818;DHT22;1924;48.078;11.516;2024-01-27T06:04:52;2.60;99.90
3818;DHT22;1924;48.078;11.516;2024-01-27T06:07:19;2.50;99.90
3818;DHT22;1924;48.078;11.516;2024-01-27T06:09:48;2.50;99.90
3818;DHT22;1924;48.078;11.516;2024-01-27T06:12:15;2.40;99.90
3818;DHT22;1924;48.078;11.516;2024-01-27T06:14:41;2.40;99.90
3818;DHT22;1924;48.078;11.516;2024-01-27T06:17:08;2.40;99.90
3818;DHT22;1924;48.078;11.516;2024-01-27T06:19:35;2.30;99.90
3818;DHT22;1924;48.078;11.516;2024-01-27T06:22:02;2.40;99.90
3818;DHT22;1924;48.078;11.516;2024-01-27T06:24:28;2.50;99.90
3818;DHT22;1924;48.078;11.516;2024-01-27T06:26:56;2.40;99.90
3818;DHT22;1924;48.078;11.516;2024-01-27T06:29:23;2.30;99.90
3818;DHT22;1924;48.078;11.516;2024-01-27T06:31:51;2.20;99.90
3818;DHT22;1924;48.078;11.516;2024-01-27T06:34:18;2.20;99.90
3818;DHT22;1924;48.078;11.516;2024-01-27T06:36:44;2.20;99.90
3818;DHT22;1924;48.078;11.516;2024-01-27T06:39:11;2.20;99.90
3818;DHT22;1924;48.078;11.516;2024-01-27T06:41:38;2.20;99.90
3818;DHT22;1924;48.078;11.516;2024-01-27T06:44:06;2.10;99.90
3818;DHT22;1924;48.078;11.516;2024-01-27T06:46:33;2.10;99.90
3818;DHT22;1924;48.078;11.516;2024-01-27T06:48:59;2.10;99.90
3818;DHT22;1924;48.078;11.516;2024-01-27T06:51:27;2.20;99.90
3818;DHT22;1924;48.078;11.516;2024-01-27T06:53:54;2.20;99.90
3818;DHT22;1924;48.078;11.516;2024-01-27T06:56:20;2.20;99.90
3818;DHT22;1924;48.078;11.516;2024-01-27T06:58:47;2.20;99.90
3818;DHT22;1924;48.078;11.516;2024-01-27T07:01:15;2.10;99.90
3818;DHT22;1924;48.078;11.516;2024-01-27T07:03:42;2.10;99.90
3818;DHT22;1924;48.078;11.516;2024-01-27T07:06:10;2.10;99.90
3818;DHT22;1924;48.078;11.516;2024-01-27T07:08:36;2.10;99.90
3818;DHT22;1924;48.078;11.516;2024-01-27T07:11:03;2.00;99.90
3818;DHT22;1924;48.078;11.516;2024-01-27T07:13:30;2.10;99.90
3818;DHT22;1924;48.078;11.516;2024-01-27T07:15:56;2.10;99.90
3818;DHT22;1924;48.078;11.516;2024-01-27T07:18:25;2.20;99.90
3818;DHT22;1924;48.078;11.516;2024-01-27T07:20:52;2.40;99.90
3818;DHT22;1924;48.078;11.516;2024-01-27T07:23:20;2.50;99.90
3818;DHT22;1924;48.078;11.516;2024-01-27T07:25:47;2.40;99.90
3818;DHT22;1924;48.078;11.516;2024-01-27T07:28:13;2.30;99.90
3818;DHT22;1924;48.078;11.516;2024-01-27T07:30:41;2.20;99.90
3818;DHT22;1924;48.078;11.516;2024-01-27T07:33:08;2.40;99.90
3818;DHT22;1924;48.078;11.516;2024-01-27T07:35:36;2.40;99.90
3818;DHT22;1924;48.078;11.516;2024-01-27T07:38:03;2.30;99.90
3818;DHT22;1924;48.078;11.516;2024-01-27T07:40:29;2.30;99.90
3818;DHT22;1924;48.078;11.516;2024-01-27T07:42:56;2.30;99.90
3818;DHT22;1924;48.078;11.516;2024-01-27T07:45:23;2.40;99.90
3818;DHT22;1924;48.078;11.516;2024-01-27T07:47:50;2.50;99.90
3818;DHT22;1924;48.078;11.516;2024-01-27T07:50:16;2.50;99.90
3818;DHT22;1924;48.078;11.516;2024-01-27T07:52:44;2.50;99.90
3818;DHT22;1924;48.078;11.516;2024-01-27T07:55:11;2.50;99.90
3818;DHT22;1924;48.078;11.516;2024-01-27T07:57:38;2.50;99.90
3818;DHT22;1924;48.078;11.516;2024-01-27T08:00:06;2.40;99.90
3818;DHT22;1924;48.078;11.516;2024-01-27T08:02:32;2.40;99.90
3818;DHT22;1924;48.078;11.516;2024-01-27T08:04:59;2.40;99.90
3818;DHT22;1924;48.078;11.516;2024-01-27T08:07:26;2.50;99.90
3818;DHT22;1924;48.078;11.516;2024-01-27T08:09:54;2.50;99.90
3818;DHT22;1924;48.078;11.516;2024-01-27T08:12:22;2.60;99.90
3818;DHT22;1924;48.078;11.516;2024-01-27T08:14:48;2.70;99.90
3818;DHT22;1924;48.078;11.516;2024-01-27T08:17:15;2.70;99.90
3818;DHT22;1924;48.078;11.516;2024-01-27T08:19:42;2.80;99.90
3818;DHT22;1924;48.078;11.516;2024-01-27T08:22:09;2.90;99.90
3818;DHT22;1924;48.078;11.516;2024-01-27T08:24:35;2.90;99.90
3818;DHT22;1924;48.078;11.516;2024-01-27T08:27:04;2.90;99.90
3818;DHT22;1924;48.078;11.516;2024-01-27T08:29:31;3.00;99.90
3818;DHT22;1924;48.078;11.516;2024-01-27T08:31:58;3.10;99.90
3818;DHT22;1924;48.078;11.516;2024-01-27T08:34:25;3.10;99.90
3818;DHT22;1924;48.078;11.516;2024-01-27T08:36:51;3.20;99.90
3818;DHT22;1924;48.078;11.516;2024-01-27T08:39:18;3.40;99.90
3818;DHT22;1924;48.078;11.516;2024-01-27T08:41:45;3.50;99.90
3818;DHT22;1924;48.078;11.516;2024-01-27T08:44:13;3.50;99.90
3818;DHT22;1924;48.078;11.516;2024-01-27T08:46:40;3.60;99.90
3818;DHT22;1924;48.078;11.516;2024-01-27T08:49:06;3.70;99.90
3818;DHT22;1924;48.078;11.516;2024-01-27T08:51:33;3.80;99.90
3818;DHT22;1924;48.078;11.516;2024-01-27T08:54:00;3.80;99.90
3818;DHT22;1924;48.078;11.516;2024-01-27T08:56:27;3.90;99.90
3818;DHT22;1924;48.078;11.516;2024-01-27T08:58:53;4.00;99.90
3818;DHT22;1924;48.078;11.516;2024-01-27T09:01:21;4.00;99.90
3818;DHT22;1924;48.078;11.516;2024-01-27T09:06:55;4.30;99.90
3818;DHT22;1924;48.078;11.516;2024-01-27T09:11:47;4.30;99.90
3818;DHT22;1924;48.078;11.516;2024-01-27T09:14:15;4.40;99.90
3818;DHT22;1924;48.078;11.516;2024-01-27T09:16:43;4.50;99.90
3818;DHT22;1924;48.078;11.516;2024-01-27T09:19:32;4.50;99.90
3818;DHT22;1924;48.078;11.516;2024-01-27T09:29:35;4.70;99.90
3818;DHT22;1924;48.078;11.516;2024-01-27T09:32:04;4.80;99.90
3818;DHT22;1924;48.078;11.516;2024-01-27T09:34:31;4.80;99.90
3818;DHT22;1924;48.078;11.516;2024-01-27T09:36:57;4.80;99.90
3818;DHT22;1924;48.078;11.516;2024-01-27T09:39:27;4.90;99.90
3818;DHT22;1924;48.078;11.516;2024-01-27T09:41:54;4.80;99.90
3818;DHT22;1924;48.078;11.516;2024-01-27T09:44:21;4.80;99.90
3818;DHT22;1924;48.078;11.516;2024-01-27T09:46:48;4.90;99.90
3818;DHT22;1924;48.078;11.516;2024-01-27T09:54:17;5.00;99.90
3818;DHT22;1924;48.078;11.516;2024-01-27T09:56:46;5.10;99.90
3818;DHT22;1924;48.078;11.516;2024-01-27T09:59:13;5.20;99.90
3818;DHT22;1924;48.078;11.516;2024-01-27T10:01:41;5.40;99.90
3818;DHT22;1924;48.078;11.516;2024-01-27T10:04:08;5.50;99.90
3818;DHT22;1924;48.078;11.516;2024-01-27T10:06:35;5.60;99.90
3818;DHT22;1924;48.078;11.516;2024-01-27T10:09:02;5.60;99.90
3818;DHT22;1924;48.078;11.516;2024-01-27T10:11:31;5.70;99.90
3818;DHT22;1924;48.078;11.516;2024-01-27T10:14:02;5.60;99.90
3818;DHT22;1924;48.078;11.516;2024-01-27T10:16:28;4.90;99.90
3818;DHT22;1924;48.078;11.516;2024-01-27T10:19:05;4.70;99.90
3818;DHT22;1924;48.078;11.516;2024-01-27T10:21:32;4.90;99.90
3818;DHT22;1924;48.078;11.516;2024-01-27T10:24:00;5.20;99.90
3818;DHT22;1924;48.078;11.516;2024-01-27T10:26:31;5.30;99.90
3818;DHT22;1924;48.078;11.516;2024-01-27T10:28:59;5.40;99.90
3818;DHT22;1924;48.078;11.516;2024-01-27T10:31:29;5.60;99.90
3818;DHT22;1924;48.078;11.516;2024-01-27T10:33:56;5.80;99.90
3818;DHT22;1924;48.078;11.516;2024-01-27T10:36:23;6.00;99.90
3818;DHT22;1924;48.078;11.516;2024-01-27T10:38:50;5.80;99.90
3818;DHT22;1924;48.078;11.516;2024-01-27T10:41:21;5.80;99.90
3818;DHT22;1924;48.078;11.516;2024-01-27T10:43:50;6.00;99.90
3818;DHT22;1924;48.078;11.516;2024-01-27T10:46:19;6.20;99.90
3818;DHT22;1924;48.078;11.516;2024-01-27T10:48:50;6.00;99.90
3818;DHT22;1924;48.078;11.516;2024-01-27T10:51:21;6.10;99.90
3818;DHT22;1924;48.078;11.516;2024-01-27T10:53:49;6.20;99.90
3818;DHT22;1924;48.078;11.516;2024-01-27T10:56:18;6.10;99.90
3818;DHT22;1924;48.078;11.516;2024-01-27T10:58:45;5.90;99.90
3818;DHT22;1924;48.078;11.516;2024-01-27T11:01:16;6.00;99.90
3818;DHT22;1924;48.078;11.516;2024-01-27T11:03:48;6.10;99.90
3818;DHT22;1924;48.078;11.516;2024-01-27T11:06:17;6.20;99.90
3818;DHT22;1924;48.078;11.516;2024-01-27T11:08:47;5.90;99.90
3818;DHT22;1924;48.078;11.516;2024-01-27T11:11:14;5.60;99.90
3818;DHT22;1924;48.078;11.516;2024-01-27T11:13:41;5.60;99.90
3818;DHT22;1924;48.078;11.516;2024-01-27T11:16:16;5.90;99.90
3818;DHT22;1924;48.078;11.516;2024-01-27T11:18:43;6.10;99.90
3818;DHT22;1924;48.078;11.516;2024-01-27T11:21:13;6.10;99.90
3818;DHT22;1924;48.078;11.516;2024-01-27T11:23:41;6.20;99.90
3818;DHT22;1924;48.078;11.516;2024-01-27T11:26:09;6.30;99.90
3818;DHT22;1924;48.078;11.516;2024-01-27T11:28:40;6.40;99.90
3818;DHT22;1924;48.078;11.516;2024-01-27T11:31:07;6.30;99.90
3818;DHT22;1924;48.078;11.516;2024-01-27T11:33:41;6.30;99.90
3818;DHT22;1924;48.078;11.516;2024-01-27T11:36:18;6.10;99.90
3818;DHT22;1924;48.078;11.516;2024-01-27T11:38:45;6.00;99.90
3818;DHT22;1924;48.078;11.516;2024-01-27T11:41:12;6.00;99.90
3818;DHT22;1924;48.078;11.516;2024-01-27T11:43:39;6.20;99.90
3818;DHT22;1924;48.078;11.516;2024-01-27T11:46:07;6.10;99.90
3818;DHT22;1924;48.078;11.516;2024-01-27T11:48:43;6.20;99.90
3818;DHT22;1924;48.078;11.516;2024-01-27T11:51:11;6.20;99.90
3818;DHT22;1924;48.078;11.516;2024-01-27T11:53:38;6.20;99.90
3818;DHT22;1924;48.078;11.516;2024-01-27T11:56:06;6.30;99.90
3818;DHT22;1924;48.078;11.516;2024-01-27T11:58:33;6.40;99.90
3818;DHT22;1924;48.078;11.516;2024-01-27T12:01:00;6.50;99.90
3818;DHT22;1924;48.078;11.516;2024-01-27T12:03:30;6.50;99.90
3818;DHT22;1924;48.078;11.516;2024-01-27T12:05:58;6.20;99.90
3818;DHT22;1924;48.078;11.516;2024-01-27T12:08:25;6.20;99.90
3818;DHT22;1924;48.078;11.516;2024-01-27T12:10:53;6.30;99.90
3818;DHT22;1924;48.078;11.516;2024-01-27T12:13:20;6.30;99.90
3818;DHT22;1924;48.078;11.516;2024-01-27T12:15:47;6.30;99.90
3818;DHT22;1924;48.078;11.516;2024-01-27T12:18:14;6.20;99.90
3818;DHT22;1924;48.078;11.516;2024-01-27T12:20:44;5.90;99.90
3818;DHT22;1924;48.078;11.516;2024-01-27T12:23:12;6.00;99.90
3818;DHT22;1924;48.078;11.516;2024-01-27T12:28:14;6.30;99.90
3818;DHT22;1924;48.078;11.516;2024-01-27T12:30:43;6.30;99.90
3818;DHT22;1924;48.078;11.516;2024-01-27T12:46:05;6.50;99.90
3818;DHT22;1924;48.078;11.516;2024-01-27T13:00:25;6.60;99.90
3818;DHT22;1924;48.078;11.516;2024-01-27T13:10:30;6.80;99.90
3818;DHT22;1924;48.078;11.516;2024-01-27T13:12:56;6.80;99.90
3818;DHT22;1924;48.078;11.516;2024-01-27T13:17:53;6.70;99.90
3818;DHT22;1924;48.078;11.516;2024-01-27T13:20:22;6.80;99.90
3818;DHT22;1924;48.078;11.516;2024-01-27T13:38:23;7.40;97.80
3818;DHT22;1924;48.078;11.516;2024-01-27T13:40:52;7.40;97.00
3818;DHT22;1924;48.078;11.516;2024-01-27T13:45:57;7.00;96.30
3818;DHT22;1924;48.078;11.516;2024-01-27T13:48:24;6.90;96.20
3818;DHT22;1924;48.078;11.516;2024-01-27T13:55:46;7.00;94.60
3818;DHT22;1924;48.078;11.516;2024-01-27T13:58:13;6.90;96.50
3818;DHT22;1924;48.078;11.516;2024-01-27T14:00:39;7.00;96.00
3818;DHT22;1924;48.078;11.516;2024-01-27T14:10:54;6.90;94.30
3818;DHT22;1924;48.078;11.516;2024-01-27T14:21:07;6.60;94.30
3818;DHT22;1924;48.078;11.516;2024-01-27T14:36:32;6.20;95.00
3818;DHT22;1924;48.078;11.516;2024-01-27T14:38:58;6.40;94.40
3818;DHT22;1924;48.078;11.516;2024-01-27T14:41:25;6.30;94.70
3818;DHT22;1924;48.078;11.516;2024-01-27T14:43:52;6.30;94.70
3818;DHT22;1924;48.078;11.516;2024-01-27T14:46:19;6.30;94.10
3818;DHT22;1924;48.078;11.516;2024-01-27T14:48:45;6.30;94.60
3818;DHT22;1924;48.078;11.516;2024-01-27T14:51:12;6.40;94.20
3818;DHT22;1924;48.078;11.516;2024-01-27T15:12:22;6.30;94.50
3818;DHT22;1924;48.078;11.516;2024-01-27T15:14:52;6.30;95.00
3818;DHT22;1924;48.078;11.516;2024-01-27T15:17:18;6.50;94.80
3818;DHT22;1924;48.078;11.516;2024-01-27T15:19:45;6.60;94.70
3818;DHT22;1924;48.078;11.516;2024-01-27T15:24:47;6.50;94.00
3818;DHT22;1924;48.078;11.516;2024-01-27T15:29:51;6.30;94.30
3818;DHT22;1924;48.078;11.516;2024-01-27T15:32:18;6.20;96.40
3818;DHT22;1924;48.078;11.516;2024-01-27T15:42:26;6.10;97.00
3818;DHT22;1924;48.078;11.516;2024-01-27T15:44:54;6.00;95.20
3818;DHT22;1924;48.078;11.516;2024-01-27T15:47:21;6.00;95.50
3818;DHT22;1924;48.078;11.516;2024-01-27T15:49:48;6.00;94.60
3818;DHT22;1924;48.078;11.516;2024-01-27T16:08:01;5.30;99.90
3818;DHT22;1924;48.078;11.516;2024-01-27T16:13:05;5.20;99.20
3818;DHT22;1924;48.078;11.516;2024-01-27T16:15:31;5.10;99.50
3818;DHT22;1924;48.078;11.516;2024-01-27T16:17:58;5.10;99.90
3818;DHT22;1924;48.078;11.516;2024-01-27T16:23:01;4.90;99.90
3818;DHT22;1924;48.078;11.516;2024-01-27T16:25:28;4.80;99.90
3818;DHT22;1924;48.078;11.516;2024-01-27T16:30:30;4.70;99.90
3818;DHT22;1924;48.078;11.516;2024-01-27T16:32:57;4.70;99.90
3818;DHT22;1924;48.078;11.516;2024-01-27T16:35:24;4.60;99.90
3818;DHT22;1924;48.078;11.516;2024-01-27T16:37:50;4.60;99.90
3818;DHT22;1924;48.078;11.516;2024-01-27T16:40:19;4.50;99.90
3818;DHT22;1924;48.078;11.516;2024-01-27T16:42:46;4.50;99.90
3818;DHT22;1924;48.078;11.516;2024-01-27T16:45:13;4.40;99.90
3818;DHT22;1924;48.078;11.516;2024-01-27T16:47:40;4.40;99.90
3818;DHT22;1924;48.078;11.516;2024-01-27T17:13:51;4.00;99.90
3818;DHT22;1924;48.078;11.516;2024-01-27T17:21:34;3.90;99.90
3818;DHT22;1924;48.078;11.516;2024-01-27T17:24:01;3.90;99.90
3818;DHT22;1924;48.078;11.516;2024-01-27T17:29:04;3.70;99.90
3818;DHT22;1924;48.078;11.516;2024-01-27T17:31:31;3.70;99.90
3818;DHT22;1924;48.078;11.516;2024-01-27T17:33:58;3.70;99.90
3818;DHT22;1924;48.078;11.516;2024-01-27T17:36:24;3.70;99.90
3818;DHT22;1924;48.078;11.516;2024-01-27T17:38:51;3.60;99.90
3818;DHT22;1924;48.078;11.516;2024-01-27T17:41:18;3.50;99.90
3818;DHT22;1924;48.078;11.516;2024-01-27T17:43:44;3.50;99.90
3818;DHT22;1924;48.078;11.516;2024-01-27T17:46:13;3.50;99.90
3818;DHT22;1924;48.078;11.516;2024-01-27T17:48:40;3.40;99.90
3818;DHT22;1924;48.078;11.516;2024-01-27T17:51:08;3.30;99.90
3818;DHT22;1924;48.078;11.516;2024-01-27T17:53:35;3.20;99.90
3818;DHT22;1924;48.078;11.516;2024-01-27T17:56:02;3.10;99.90
3818;DHT22;1924;48.078;11.516;2024-01-27T17:58:29;3.20;99.90
3818;DHT22;1924;48.078;11.516;2024-01-27T18:00:55;3.30;99.90
3818;DHT22;1924;48.078;11.516;2024-01-27T18:03:24;3.30;99.90
3818;DHT22;1924;48.078;11.516;2024-01-27T18:05:51;3.20;99.90
3818;DHT22;1924;48.078;11.516;2024-01-27T18:08:17;3.20;99.90
3818;DHT22;1924;48.078;11.516;2024-01-27T18:13:10;3.00;99.90
3818;DHT22;1924;48.078;11.516;2024-01-27T18:23:24;3.00;99.90
3818;DHT22;1924;48.078;11.516;2024-01-27T18:25:53;2.90;99.90
3818;DHT22;1924;48.078;11.516;2024-01-27T18:33:28;2.80;99.90
3818;DHT22;1924;48.078;11.516;2024-01-27T18:38:31;2.80;99.90
3818;DHT22;1924;48.078;11.516;2024-01-27T18:40:58;2.80;99.90
3818;DHT22;1924;48.078;11.516;2024-01-27T18:43:25;2.80;99.90
3818;DHT22;1924;48.078;11.516;2024-01-27T18:45:51;2.80;99.90
3818;DHT22;1924;48.078;11.516;2024-01-27T18:48:19;2.70;99.90
3818;DHT22;1924;48.078;11.516;2024-01-27T18:56:09;2.50;99.90
3818;DHT22;1924;48.078;11.516;2024-01-27T18:58:36;2.50;99.90
3818;DHT22;1924;48.078;11.516;2024-01-27T19:01:05;2.60;99.90
3818;DHT22;1924;48.078;11.516;2024-01-27T19:03:32;2.60;99.90
3818;DHT22;1924;48.078;11.516;2024-01-27T19:06:00;2.50;99.90
3818;DHT22;1924;48.078;11.516;2024-01-27T19:08:27;2.50;99.90
3818;DHT22;1924;48.078;11.516;2024-01-27T19:10:54;2.50;99.90
3818;DHT22;1924;48.078;11.516;2024-01-27T19:13:22;2.50;99.90
3818;DHT22;1924;48.078;11.516;2024-01-27T19:15:50;2.50;99.90
3818;DHT22;1924;48.078;11.516;2024-01-27T19:18:19;2.40;99.90
3818;DHT22;1924;48.078;11.516;2024-01-27T19:20:46;2.40;99.90
3818;DHT22;1924;48.078;11.516;2024-01-27T19:23:13;2.30;99.90
3818;DHT22;1924;48.078;11.516;2024-01-27T19:25:42;2.20;99.90
3818;DHT22;1924;48.078;11.516;2024-01-27T19:28:09;2.10;99.90
3818;DHT22;1924;48.078;11.516;2024-01-27T19:30:41;1.90;99.90
3818;DHT22;1924;48.078;11.516;2024-01-27T19:35:43;2.20;99.90
3818;DHT22;1924;48.078;11.516;2024-01-27T19:38:10;2.20;99.90
3818;DHT22;1924;48.078;11.516;2024-01-27T19:40:37;2.20;99.90
3818;DHT22;1924;48.078;11.516;2024-01-27T19:43:03;2.20;99.90
3818;DHT22;1924;48.078;11.516;2024-01-27T19:45:32;2.30;99.90
3818;DHT22;1924;48.078;11.516;2024-01-27T19:48:00;2.30;99.90
3818;DHT22;1924;48.078;11.516;2024-01-27T19:50:27;2.20;99.90
3818;DHT22;1924;48.078;11.516;2024-01-27T19:52:57;2.10;99.90
3818;DHT22;1924;48.078;11.516;2024-01-27T20:04:44;2.20;99.90
3818;DHT22;1924;48.078;11.516;2024-01-27T20:07:13;2.30;99.90
3818;DHT22;1924;48.078;11.516;2024-01-27T20:12:24;2.30;99.90
3818;DHT22;1924;48.078;11.516;2024-01-27T20:49:09;2.00;99.90
3818;DHT22;1924;48.078;11.516;2024-01-27T20:51:36;2.00;99.90
3818;DHT22;1924;48.078;11.516;2024-01-27T20:54:06;2.10;99.90
3818;DHT22;1924;48.078;11.516;2024-01-27T20:59:09;2.00;99.90
3818;DHT22;1924;48.078;11.516;2024-01-27T21:01:35;2.00;99.90
3818;DHT22;1924;48.078;11.516;2024-01-27T21:04:04;2.00;99.90
3818;DHT22;1924;48.078;11.516;2024-01-27T21:06:33;2.00;99.90
3818;DHT22;1924;48.078;11.516;2024-01-27T21:09:00;2.00;99.90
3818;DHT22;1924;48.078;11.516;2024-01-27T21:16:55;1.90;99.90
3818;DHT22;1924;48.078;11.516;2024-01-27T21:19:22;1.90;99.90
3818;DHT22;1924;48.078;11.516;2024-01-27T21:21:50;1.80;99.90
3818;DHT22;1924;48.078;11.516;2024-01-27T21:27:39;1.90;99.90
3818;DHT22;1924;48.078;11.516;2024-01-27T21:30:07;2.00;99.90
3818;DHT22;1924;48.078;11.516;2024-01-27T21:32:34;2.00;99.90
3818;DHT22;1924;48.078;11.516;2024-01-27T21:35:01;2.00;99.90
3818;DHT22;1924;48.078;11.516;2024-01-27T21:37:29;1.90;99.90
3818;DHT22;1924;48.078;11.516;2024-01-27T21:39:56;1.80;99.90
3818;DHT22;1924;48.078;11.516;2024-01-27T21:42:25;1.80;99.90
3818;DHT22;1924;48.078;11.516;2024-01-27T21:44:52;1.90;99.90
3818;DHT22;1924;48.078;11.516;2024-01-27T21:47:19;1.90;99.90
3818;DHT22;1924;48.078;11.516;2024-01-27T21:49:46;1.90;99.90
3818;DHT22;1924;48.078;11.516;2024-01-27T21:52:13;1.80;99.90
3818;DHT22;1924;48.078;11.516;2024-01-27T21:54:41;1.70;99.90
3818;DHT22;1924;48.078;11.516;2024-01-27T21:57:08;1.70;99.90
3818;DHT22;1924;48.078;11.516;2024-01-27T21:59:34;1.70;99.90
3818;DHT22;1924;48.078;11.516;2024-01-27T22:02:01;1.60;99.90
3818;DHT22;1924;48.078;11.516;2024-01-27T22:04:28;1.70;99.90
3818;DHT22;1924;48.078;11.516;2024-01-27T22:06:54;1.70;99.90
3818;DHT22;1924;48.078;11.516;2024-01-27T22:09:22;1.70;99.90
3818;DHT22;1924;48.078;11.516;2024-01-27T22:11:50;1.70;99.90
3818;DHT22;1924;48.078;11.516;2024-01-27T22:14:16;1.60;99.90
3818;DHT22;1924;48.078;11.516;2024-01-27T22:16:43;1.50;99.90
3818;DHT22;1924;48.078;11.516;2024-01-27T22:19:10;1.50;99.90
3818;DHT22;1924;48.078;11.516;2024-01-27T22:21:37;1.50;99.90
3818;DHT22;1924;48.078;11.516;2024-01-27T22:24:03;1.50;99.90
3818;DHT22;1924;48.078;11.516;2024-01-27T22:26:31;1.50;99.90
3818;DHT22;1924;48.078;11.516;2024-01-27T22:28:59;1.50;99.90
3818;DHT22;1924;48.078;11.516;2024-01-27T22:31:30;1.50;99.90
3818;DHT22;1924;48.078;11.516;2024-01-27T22:33:56;1.60;99.90
3818;DHT22;1924;48.078;11.516;2024-01-27T22:36:23;1.70;99.90
3818;DHT22;1924;48.078;11.516;2024-01-27T22:38:50;1.80;99.90
3818;DHT22;1924;48.078;11.516;2024-01-27T22:41:17;1.80;99.90
3818;DHT22;1924;48.078;11.516;2024-01-27T22:43:45;1.70;99.90
3818;DHT22;1924;48.078;11.516;2024-01-27T22:46:16;1.60;99.90
3818;DHT22;1924;48.078;11.516;2024-01-27T22:48:43;1.50;99.90